sensor_id;sensor_type;location;lat;lon;timestamp;pressure;altitude;pressure_sealevel;temperature
23208;BMP180;11773;52.570;13.052;2022-07-03T00:02:12;101789.00;;;24.40
23208;BMP180;11773;52.570;13.052;2022-07-03T00:04:42;101800.00;;;24.30
23208;BMP180;11773;52.570;13.052;2022-07-03T00:07:12;101802.00;;;24.30
23208;BMP180;11773;52.570;13.052;2022-07-03T00:09:42;101787.00;;;24.30
23208;BMP180;11773;52.570;13.052;2022-07-03T00:12:12;101784.00;;;24.30
23208;BMP180;11773;52.570;13.052;2022-07-03T00:14:41;101785.00;;;24.30
23208;BMP180;11773;52.570;13.052;2022-07-03T00:17:12;101781.00;;;24.20
23208;BMP180;11773;52.570;13.052;2022-07-03T00:19:42;101778.00;;;24.20
23208;BMP180;11773;52.570;13.052;2022-07-03T00:22:13;101782.00;;;24.20
23208;BMP180;11773;52.570;13.052;2022-07-03T00:24:53;101777.00;;;24.20
23208;BMP180;11773;52.570;13.052;2022-07-03T00:27:25;101774.00;;;24.10
23208;BMP180;11773;52.570;13.052;2022-07-03T00:29:58;101792.00;;;24.10
23208;BMP180;11773;52.570;13.052;2022-07-03T00:32:29;101775.00;;;24.00
23208;BMP180;11773;52.570;13.052;2022-07-03T00:34:59;101762.00;;;24.00
23208;BMP180;11773;52.570;13.052;2022-07-03T00:37:28;101767.00;;;23.90
23208;BMP180;11773;52.570;13.052;2022-07-03T00:39:58;101747.00;;;23.90
23208;BMP180;11773;52.570;13.052;2022-07-03T00:42:30;101763.00;;;23.90
23208;BMP180;11773;52.570;13.052;2022-07-03T00:45:01;101747.00;;;23.90
23208;BMP180;11773;52.570;13.052;2022-07-03T00:47:35;101748.00;;;23.80
23208;BMP180;11773;52.570;13.052;2022-07-03T00:50:08;101739.00;;;23.80
23208;BMP180;11773;52.570;13.052;2022-07-03T00:52:38;101740.00;;;23.80
23208;BMP180;11773;52.570;13.052;2022-07-03T00:55:14;101746.00;;;23.70
23208;BMP180;11773;52.570;13.052;2022-07-03T00:57:46;101744.00;;;23.70
23208;BMP180;11773;52.570;13.052;2022-07-03T01:00:17;101741.00;;;23.70
23208;BMP180;11773;52.570;13.052;2022-07-03T01:03:05;101740.00;;;23.60
23208;BMP180;11773;52.570;13.052;2022-07-03T01:05:50;101734.00;;;23.50
23208;BMP180;11773;52.570;13.052;2022-07-03T01:14:01;101734.00;;;23.40
23208;BMP180;11773;52.570;13.052;2022-07-03T01:19:47;101729.00;;;23.30
23208;BMP180;11773;52.570;13.052;2022-07-03T01:22:36;101728.00;;;23.20
23208;BMP180;11773;52.570;13.052;2022-07-03T01:25:24;101726.00;;;23.20
23208;BMP180;11773;52.570;13.052;2022-07-03T01:28:15;101730.00;;;23.20
23208;BMP180;11773;52.570;13.052;2022-07-03T01:30:54;101737.00;;;23.10
23208;BMP180;11773;52.570;13.052;2022-07-03T01:33:32;101729.00;;;23.10
23208;BMP180;11773;52.570;13.052;2022-07-03T01:36:08;101724.00;;;23.10
23208;BMP180;11773;52.570;13.052;2022-07-03T01:38:41;101723.00;;;23.10
23208;BMP180;11773;52.570;13.052;2022-07-03T01:41:13;101718.00;;;23.10
23208;BMP180;11773;52.570;13.052;2022-07-03T01:43:48;101730.00;;;23.10
23208;BMP180;11773;52.570;13.052;2022-07-03T01:46:21;101721.00;;;23.00
23208;BMP180;11773;52.570;13.052;2022-07-03T01:48:54;101718.00;;;23.00
23208;BMP180;11773;52.570;13.052;2022-07-03T01:51:25;101727.00;;;23.00
23208;BMP180;11773;52.570;13.052;2022-07-03T01:53:55;101711.00;;;23.00
23208;BMP180;11773;52.570;13.052;2022-07-03T01:56:28;101714.00;;;22.90
23208;BMP180;11773;52.570;13.052;2022-07-03T01:59:02;101720.00;;;22.90
23208;BMP180;11773;52.570;13.052;2022-07-03T02:04:41;101706.00;;;22.80
23208;BMP180;11773;52.570;13.052;2022-07-03T02:07:35;101708.00;;;22.80
23208;BMP180;11773;52.570;13.052;2022-07-03T02:10:07;101718.00;;;22.80
23208;BMP180;11773;52.570;13.052;2022-07-03T02:12:47;101717.00;;;22.70
23208;BMP180;11773;52.570;13.052;2022-07-03T02:15:29;101712.00;;;22.70
23208;BMP180;11773;52.570;13.052;2022-07-03T02:18:11;101700.00;;;22.60
23208;BMP180;11773;52.570;13.052;2022-07-03T02:20:39;101722.00;;;22.60
23208;BMP180;11773;52.570;13.052;2022-07-03T02:23:10;101705.00;;;22.60
23208;BMP180;11773;52.570;13.052;2022-07-03T02:25:44;101710.00;;;22.60
23208;BMP180;11773;52.570;13.052;2022-07-03T02:28:58;101704.00;;;22.60
23208;BMP180;11773;52.570;13.052;2022-07-03T02:31:30;101710.00;;;22.50
23208;BMP180;11773;52.570;13.052;2022-07-03T02:34:01;101700.00;;;22.50
23208;BMP180;11773;52.570;13.052;2022-07-03T02:36:35;101709.00;;;22.50
23208;BMP180;11773;52.570;13.052;2022-07-03T02:39:08;101696.00;;;22.50
23208;BMP180;11773;52.570;13.052;2022-07-03T02:41:45;101699.00;;;22.50
23208;BMP180;11773;52.570;13.052;2022-07-03T02:44:38;101712.00;;;22.50
23208;BMP180;11773;52.570;13.052;2022-07-03T02:47:37;101701.00;;;22.40
23208;BMP180;11773;52.570;13.052;2022-07-03T02:50:02;101699.00;;;22.40
23208;BMP180;11773;52.570;13.052;2022-07-03T02:52:50;101693.00;;;22.40
23208;BMP180;11773;52.570;13.052;2022-07-03T02:55:46;101699.00;;;22.30
23208;BMP180;11773;52.570;13.052;2022-07-03T02:58:44;101696.00;;;22.30
23208;BMP180;11773;52.570;13.052;2022-07-03T03:04:21;101706.00;;;22.20
23208;BMP180;11773;52.570;13.052;2022-07-03T03:07:13;101697.00;;;22.20
23208;BMP180;11773;52.570;13.052;2022-07-03T03:09:45;101704.00;;;22.10
23208;BMP180;11773;52.570;13.052;2022-07-03T03:12:19;101694.00;;;22.10
23208;BMP180;11773;52.570;13.052;2022-07-03T03:14:53;101705.00;;;22.20
23208;BMP180;11773;52.570;13.052;2022-07-03T03:17:27;101700.00;;;22.20
23208;BMP180;11773;52.570;13.052;2022-07-03T03:20:01;101704.00;;;22.20
23208;BMP180;11773;52.570;13.052;2022-07-03T03:22:49;101696.00;;;22.20
23208;BMP180;11773;52.570;13.052;2022-07-03T03:25:12;101709.00;;;22.20
23208;BMP180;11773;52.570;13.052;2022-07-03T03:27:42;101699.00;;;22.20
23208;BMP180;11773;52.570;13.052;2022-07-03T03:30:12;101711.00;;;22.20
23208;BMP180;11773;52.570;13.052;2022-07-03T03:32:42;101700.00;;;22.20
23208;BMP180;11773;52.570;13.052;2022-07-03T03:35:12;101696.00;;;22.20
23208;BMP180;11773;52.570;13.052;2022-07-03T03:37:42;101697.00;;;22.20
23208;BMP180;11773;52.570;13.052;2022-07-03T03:40:12;101693.00;;;22.20
23208;BMP180;11773;52.570;13.052;2022-07-03T03:42:42;101691.00;;;22.20
23208;BMP180;11773;52.570;13.052;2022-07-03T03:45:12;101697.00;;;22.20
23208;BMP180;11773;52.570;13.052;2022-07-03T03:47:41;101690.00;;;22.20
23208;BMP180;11773;52.570;13.052;2022-07-03T03:50:11;101682.00;;;22.20
23208;BMP180;11773;52.570;13.052;2022-07-03T03:52:42;101689.00;;;22.20
23208;BMP180;11773;52.570;13.052;2022-07-03T03:55:11;101694.00;;;22.10
23208;BMP180;11773;52.570;13.052;2022-07-03T03:57:41;101704.00;;;22.10
23208;BMP180;11773;52.570;13.052;2022-07-03T04:00:11;101706.00;;;22.20
23208;BMP180;11773;52.570;13.052;2022-07-03T04:02:41;101685.00;;;22.10
23208;BMP180;11773;52.570;13.052;2022-07-03T04:05:10;101686.00;;;22.10
23208;BMP180;11773;52.570;13.052;2022-07-03T04:07:40;101696.00;;;22.10
23208;BMP180;11773;52.570;13.052;2022-07-03T04:10:09;101686.00;;;22.10
23208;BMP180;11773;52.570;13.052;2022-07-03T04:12:39;101689.00;;;22.10
23208;BMP180;11773;52.570;13.052;2022-07-03T04:15:09;101678.00;;;22.20
23208;BMP180;11773;52.570;13.052;2022-07-03T04:17:38;101676.00;;;22.20
23208;BMP180;11773;52.570;13.052;2022-07-03T04:20:09;101680.00;;;22.20
23208;BMP180;11773;52.570;13.052;2022-07-03T04:22:38;101682.00;;;22.20
23208;BMP180;11773;52.570;13.052;2022-07-03T04:25:08;101697.00;;;22.20
23208;BMP180;11773;52.570;13.052;2022-07-03T04:27:38;101680.00;;;22.20
23208;BMP180;11773;52.570;13.052;2022-07-03T04:30:10;101677.00;;;22.30
23208;BMP180;11773;52.570;13.052;2022-07-03T04:32:40;101687.00;;;22.30
23208;BMP180;11773;52.570;13.052;2022-07-03T04:35:09;101678.00;;;22.30
23208;BMP180;11773;52.570;13.052;2022-07-03T04:37:39;101682.00;;;22.40
23208;BMP180;11773;52.570;13.052;2022-07-03T04:40:09;101665.00;;;22.40
23208;BMP180;11773;52.570;13.052;2022-07-03T04:42:39;101667.00;;;22.40
23208;BMP180;11773;52.570;13.052;2022-07-03T04:45:09;101671.00;;;22.50
23208;BMP180;11773;52.570;13.052;2022-07-03T04:47:39;101674.00;;;22.50
23208;BMP180;11773;52.570;13.052;2022-07-03T04:50:08;101662.00;;;22.60
23208;BMP180;11773;52.570;13.052;2022-07-03T04:52:38;101672.00;;;22.60
23208;BMP180;11773;52.570;13.052;2022-07-03T04:55:08;101675.00;;;22.60
23208;BMP180;11773;52.570;13.052;2022-07-03T04:57:38;101663.00;;;22.60
23208;BMP180;11773;52.570;13.052;2022-07-03T05:00:09;101658.00;;;22.70
23208;BMP180;11773;52.570;13.052;2022-07-03T05:02:38;101664.00;;;22.70
23208;BMP180;11773;52.570;13.052;2022-07-03T05:05:08;101655.00;;;22.70
23208;BMP180;11773;52.570;13.052;2022-07-03T05:07:37;101657.00;;;22.80
23208;BMP180;11773;52.570;13.052;2022-07-03T05:10:07;101650.00;;;22.80
23208;BMP180;11773;52.570;13.052;2022-07-03T05:12:37;101657.00;;;22.90
23208;BMP180;11773;52.570;13.052;2022-07-03T05:15:09;101650.00;;;22.90
23208;BMP180;11773;52.570;13.052;2022-07-03T05:17:38;101660.00;;;23.00
23208;BMP180;11773;52.570;13.052;2022-07-03T05:20:09;101655.00;;;23.20
23208;BMP180;11773;52.570;13.052;2022-07-03T05:22:57;101655.00;;;23.40
23208;BMP180;11773;52.570;13.052;2022-07-03T05:25:29;101661.00;;;23.60
23208;BMP180;11773;52.570;13.052;2022-07-03T05:28:00;101658.00;;;23.90
23208;BMP180;11773;52.570;13.052;2022-07-03T05:30:30;101654.00;;;24.10
23208;BMP180;11773;52.570;13.052;2022-07-03T05:33:00;101658.00;;;24.40
23208;BMP180;11773;52.570;13.052;2022-07-03T05:35:30;101645.00;;;24.70
23208;BMP180;11773;52.570;13.052;2022-07-03T05:37:59;101646.00;;;25.00
23208;BMP180;11773;52.570;13.052;2022-07-03T05:40:29;101642.00;;;25.20
23208;BMP180;11773;52.570;13.052;2022-07-03T05:42:58;101640.00;;;25.50
23208;BMP180;11773;52.570;13.052;2022-07-03T05:45:28;101651.00;;;25.70
23208;BMP180;11773;52.570;13.052;2022-07-03T05:47:57;101643.00;;;26.00
23208;BMP180;11773;52.570;13.052;2022-07-03T05:50:29;101631.00;;;26.20
23208;BMP180;11773;52.570;13.052;2022-07-03T05:52:58;101639.00;;;26.40
23208;BMP180;11773;52.570;13.052;2022-07-03T05:55:28;101645.00;;;26.60
23208;BMP180;11773;52.570;13.052;2022-07-03T05:57:57;101643.00;;;26.80
23208;BMP180;11773;52.570;13.052;2022-07-03T06:00:27;101655.00;;;27.00
23208;BMP180;11773;52.570;13.052;2022-07-03T06:02:57;101646.00;;;27.20
23208;BMP180;11773;52.570;13.052;2022-07-03T06:05:26;101658.00;;;27.40
23208;BMP180;11773;52.570;13.052;2022-07-03T06:07:56;101654.00;;;27.60
23208;BMP180;11773;52.570;13.052;2022-07-03T06:10:27;101654.00;;;27.70
23208;BMP180;11773;52.570;13.052;2022-07-03T06:12:57;101639.00;;;27.80
23208;BMP180;11773;52.570;13.052;2022-07-03T06:15:27;101628.00;;;28.00
23208;BMP180;11773;52.570;13.052;2022-07-03T06:17:57;101626.00;;;28.10
23208;BMP180;11773;52.570;13.052;2022-07-03T06:20:26;101621.00;;;28.20
23208;BMP180;11773;52.570;13.052;2022-07-03T06:22:56;101628.00;;;28.30
23208;BMP180;11773;52.570;13.052;2022-07-03T06:25:25;101620.00;;;28.40
23208;BMP180;11773;52.570;13.052;2022-07-03T06:27:55;101617.00;;;28.60
23208;BMP180;11773;52.570;13.052;2022-07-03T06:30:24;101623.00;;;28.70
23208;BMP180;11773;52.570;13.052;2022-07-03T06:32:54;101627.00;;;28.80
23208;BMP180;11773;52.570;13.052;2022-07-03T06:35:24;101631.00;;;28.90
23208;BMP180;11773;52.570;13.052;2022-07-03T06:37:53;101647.00;;;29.00
23208;BMP180;11773;52.570;13.052;2022-07-03T06:40:23;101637.00;;;29.10
23208;BMP180;11773;52.570;13.052;2022-07-03T06:42:52;101638.00;;;29.20
23208;BMP180;11773;52.570;13.052;2022-07-03T06:45:22;101636.00;;;29.30
23208;BMP180;11773;52.570;13.052;2022-07-03T06:47:51;101637.00;;;29.40
23208;BMP180;11773;52.570;13.052;2022-07-03T06:50:21;101626.00;;;29.40
23208;BMP180;11773;52.570;13.052;2022-07-03T06:52:50;101636.00;;;29.50
23208;BMP180;11773;52.570;13.052;2022-07-03T06:55:20;101621.00;;;29.60
23208;BMP180;11773;52.570;13.052;2022-07-03T06:57:49;101625.00;;;29.70
23208;BMP180;11773;52.570;13.052;2022-07-03T07:00:19;101630.00;;;29.80
23208;BMP180;11773;52.570;13.052;2022-07-03T07:02:48;101621.00;;;29.90
23208;BMP180;11773;52.570;13.052;2022-07-03T07:05:18;101618.00;;;29.90
23208;BMP180;11773;52.570;13.052;2022-07-03T07:07:48;101616.00;;;30.00
23208;BMP180;11773;52.570;13.052;2022-07-03T07:10:17;101616.00;;;30.10
23208;BMP180;11773;52.570;13.052;2022-07-03T07:12:47;101614.00;;;30.20
23208;BMP180;11773;52.570;13.052;2022-07-03T07:15:17;101616.00;;;30.20
23208;BMP180;11773;52.570;13.052;2022-07-03T07:17:47;101629.00;;;30.40
23208;BMP180;11773;52.570;13.052;2022-07-03T07:20:16;101620.00;;;30.40
23208;BMP180;11773;52.570;13.052;2022-07-03T07:22:46;101621.00;;;30.40
23208;BMP180;11773;52.570;13.052;2022-07-03T07:25:15;101614.00;;;30.50
23208;BMP180;11773;52.570;13.052;2022-07-03T07:27:45;101624.00;;;30.50
23208;BMP180;11773;52.570;13.052;2022-07-03T07:30:14;101607.00;;;30.60
23208;BMP180;11773;52.570;13.052;2022-07-03T07:32:43;101609.00;;;30.60
23208;BMP180;11773;52.570;13.052;2022-07-03T07:35:15;101615.00;;;30.60
23208;BMP180;11773;52.570;13.052;2022-07-03T07:37:44;101619.00;;;30.60
23208;BMP180;11773;52.570;13.052;2022-07-03T07:40:14;101623.00;;;30.70
23208;BMP180;11773;52.570;13.052;2022-07-03T07:42:43;101597.00;;;30.70
23208;BMP180;11773;52.570;13.052;2022-07-03T07:45:13;101604.00;;;30.70
23208;BMP180;11773;52.570;13.052;2022-07-03T07:47:43;101599.00;;;30.70
23208;BMP180;11773;52.570;13.052;2022-07-03T07:50:13;101593.00;;;30.80
23208;BMP180;11773;52.570;13.052;2022-07-03T07:52:42;101591.00;;;30.80
23208;BMP180;11773;52.570;13.052;2022-07-03T07:55:12;101596.00;;;30.80
23208;BMP180;11773;52.570;13.052;2022-07-03T07:57:42;101608.00;;;30.90
23208;BMP180;11773;52.570;13.052;2022-07-03T08:00:17;101593.00;;;30.90
23208;BMP180;11773;52.570;13.052;2022-07-03T08:02:47;101591.00;;;31.00
23208;BMP180;11773;52.570;13.052;2022-07-03T08:05:35;101597.00;;;31.10
23208;BMP180;11773;52.570;13.052;2022-07-03T08:08:16;101598.00;;;31.10
23208;BMP180;11773;52.570;13.052;2022-07-03T08:10:47;101592.00;;;31.20
23208;BMP180;11773;52.570;13.052;2022-07-03T08:13:19;101600.00;;;31.30
23208;BMP180;11773;52.570;13.052;2022-07-03T08:15:49;101576.00;;;31.30
23208;BMP180;11773;52.570;13.052;2022-07-03T08:18:20;101593.00;;;31.40
23208;BMP180;11773;52.570;13.052;2022-07-03T08:20:50;101580.00;;;31.50
23208;BMP180;11773;52.570;13.052;2022-07-03T08:23:19;101587.00;;;31.50
23208;BMP180;11773;52.570;13.052;2022-07-03T08:25:49;101586.00;;;31.50
23208;BMP180;11773;52.570;13.052;2022-07-03T08:28:18;101579.00;;;31.50
23208;BMP180;11773;52.570;13.052;2022-07-03T08:30:48;101584.00;;;31.60
23208;BMP180;11773;52.570;13.052;2022-07-03T08:33:18;101591.00;;;31.60
23208;BMP180;11773;52.570;13.052;2022-07-03T08:35:47;101573.00;;;31.60
23208;BMP180;11773;52.570;13.052;2022-07-03T08:38:17;101574.00;;;31.60
23208;BMP180;11773;52.570;13.052;2022-07-03T08:40:49;101561.00;;;31.70
23208;BMP180;11773;52.570;13.052;2022-07-03T08:43:20;101573.00;;;31.80
23208;BMP180;11773;52.570;13.052;2022-07-03T08:45:52;101573.00;;;31.80
23208;BMP180;11773;52.570;13.052;2022-07-03T08:48:22;101559.00;;;31.80
23208;BMP180;11773;52.570;13.052;2022-07-03T08:50:54;101561.00;;;31.90
23208;BMP180;11773;52.570;13.052;2022-07-03T08:53:24;101565.00;;;32.00
23208;BMP180;11773;52.570;13.052;2022-07-03T08:55:54;101569.00;;;32.00
23208;BMP180;11773;52.570;13.052;2022-07-03T08:58:26;101557.00;;;32.00
23208;BMP180;11773;52.570;13.052;2022-07-03T09:00:57;101553.00;;;32.00
23208;BMP180;11773;52.570;13.052;2022-07-03T09:03:27;101553.00;;;32.10
23208;BMP180;11773;52.570;13.052;2022-07-03T09:05:57;101558.00;;;32.10
23208;BMP180;11773;52.570;13.052;2022-07-03T09:08:28;101562.00;;;32.10
23208;BMP180;11773;52.570;13.052;2022-07-03T09:11:00;101562.00;;;32.10
23208;BMP180;11773;52.570;13.052;2022-07-03T09:13:30;101567.00;;;32.20
23208;BMP180;11773;52.570;13.052;2022-07-03T09:15:59;101562.00;;;32.20
23208;BMP180;11773;52.570;13.052;2022-07-03T09:18:46;101558.00;;;32.30
23208;BMP180;11773;52.570;13.052;2022-07-03T09:21:12;101563.00;;;32.30
23208;BMP180;11773;52.570;13.052;2022-07-03T09:23:44;101556.00;;;32.30
23208;BMP180;11773;52.570;13.052;2022-07-03T09:26:18;101565.00;;;32.30
23208;BMP180;11773;52.570;13.052;2022-07-03T09:28:54;101570.00;;;32.40
23208;BMP180;11773;52.570;13.052;2022-07-03T09:31:27;101550.00;;;32.40
23208;BMP180;11773;52.570;13.052;2022-07-03T09:34:07;101549.00;;;32.40
23208;BMP180;11773;52.570;13.052;2022-07-03T09:36:49;101565.00;;;32.40
23208;BMP180;11773;52.570;13.052;2022-07-03T09:39:30;101558.00;;;32.50
23208;BMP180;11773;52.570;13.052;2022-07-03T09:42:09;101571.00;;;32.60
23208;BMP180;11773;52.570;13.052;2022-07-03T09:44:45;101550.00;;;32.70
23208;BMP180;11773;52.570;13.052;2022-07-03T09:50:03;101560.00;;;32.80
23208;BMP180;11773;52.570;13.052;2022-07-03T09:52:40;101561.00;;;32.80
23208;BMP180;11773;52.570;13.052;2022-07-03T09:55:17;101566.00;;;32.80
23208;BMP180;11773;52.570;13.052;2022-07-03T10:00:28;101538.00;;;32.90
23208;BMP180;11773;52.570;13.052;2022-07-03T10:03:06;101537.00;;;32.90
23208;BMP180;11773;52.570;13.052;2022-07-03T10:05:41;101560.00;;;33.00
23208;BMP180;11773;52.570;13.052;2022-07-03T10:08:13;101540.00;;;33.10
23208;BMP180;11773;52.570;13.052;2022-07-03T10:10:48;101531.00;;;33.20
23208;BMP180;11773;52.570;13.052;2022-07-03T10:13:18;101535.00;;;33.30
23208;BMP180;11773;52.570;13.052;2022-07-03T10:15:47;101534.00;;;33.40
23208;BMP180;11773;52.570;13.052;2022-07-03T10:18:20;101538.00;;;33.50
23208;BMP180;11773;52.570;13.052;2022-07-03T10:20:51;101538.00;;;33.60
23208;BMP180;11773;52.570;13.052;2022-07-03T10:23:23;101547.00;;;33.70
23208;BMP180;11773;52.570;13.052;2022-07-03T10:25:52;101542.00;;;33.70
23208;BMP180;11773;52.570;13.052;2022-07-03T10:28:22;101541.00;;;33.80
23208;BMP180;11773;52.570;13.052;2022-07-03T10:30:52;101536.00;;;33.80
23208;BMP180;11773;52.570;13.052;2022-07-03T10:33:22;101535.00;;;33.80
23208;BMP180;11773;52.570;13.052;2022-07-03T10:35:54;101528.00;;;33.70
23208;BMP180;11773;52.570;13.052;2022-07-03T10:38:39;101529.00;;;33.70
23208;BMP180;11773;52.570;13.052;2022-07-03T10:41:36;101522.00;;;33.60
23208;BMP180;11773;52.570;13.052;2022-07-03T10:44:23;101518.00;;;33.60
23208;BMP180;11773;52.570;13.052;2022-07-03T10:50:13;101509.00;;;33.60
23208;BMP180;11773;52.570;13.052;2022-07-03T10:52:44;101509.00;;;33.70
23208;BMP180;11773;52.570;13.052;2022-07-03T10:55:15;101507.00;;;33.70
23208;BMP180;11773;52.570;13.052;2022-07-03T10:58:06;101527.00;;;33.70
23208;BMP180;11773;52.570;13.052;2022-07-03T11:00:51;101512.00;;;33.70
23208;BMP180;11773;52.570;13.052;2022-07-03T11:03:59;101516.00;;;33.70
23208;BMP180;11773;52.570;13.052;2022-07-03T11:09:19;101512.00;;;33.90
23208;BMP180;11773;52.570;13.052;2022-07-03T11:11:49;101500.00;;;34.00
23208;BMP180;11773;52.570;13.052;2022-07-03T11:14:27;101493.00;;;34.10
23208;BMP180;11773;52.570;13.052;2022-07-03T11:17:20;101492.00;;;34.20
23208;BMP180;11773;52.570;13.052;2022-07-03T11:19:51;101482.00;;;34.20
23208;BMP180;11773;52.570;13.052;2022-07-03T11:22:59;101491.00;;;34.30
23208;BMP180;11773;52.570;13.052;2022-07-03T11:25:26;101483.00;;;34.30
23208;BMP180;11773;52.570;13.052;2022-07-03T11:27:57;101473.00;;;34.40
23208;BMP180;11773;52.570;13.052;2022-07-03T11:30:26;101471.00;;;34.40
23208;BMP180;11773;52.570;13.052;2022-07-03T11:32:57;101487.00;;;34.40
23208;BMP180;11773;52.570;13.052;2022-07-03T11:35:49;101472.00;;;34.40
23208;BMP180;11773;52.570;13.052;2022-07-03T11:38:27;101469.00;;;34.30
23208;BMP180;11773;52.570;13.052;2022-07-03T11:40:59;101453.00;;;34.40
23208;BMP180;11773;52.570;13.052;2022-07-03T11:43:30;101456.00;;;34.40
23208;BMP180;11773;52.570;13.052;2022-07-03T11:46:01;101446.00;;;34.40
23208;BMP180;11773;52.570;13.052;2022-07-03T11:48:32;101447.00;;;34.40
23208;BMP180;11773;52.570;13.052;2022-07-03T11:51:04;101451.00;;;34.40
23208;BMP180;11773;52.570;13.052;2022-07-03T11:53:36;101431.00;;;34.40
23208;BMP180;11773;52.570;13.052;2022-07-03T11:59:04;101447.00;;;34.50
23208;BMP180;11773;52.570;13.052;2022-07-03T12:01:35;101435.00;;;34.50
23208;BMP180;11773;52.570;13.052;2022-07-03T12:04:12;101446.00;;;34.60
23208;BMP180;11773;52.570;13.052;2022-07-03T12:06:48;101449.00;;;34.60
23208;BMP180;11773;52.570;13.052;2022-07-03T12:09:22;101446.00;;;34.60
23208;BMP180;11773;52.570;13.052;2022-07-03T12:12:04;101436.00;;;34.70
23208;BMP180;11773;52.570;13.052;2022-07-03T12:14:40;101434.00;;;34.70
23208;BMP180;11773;52.570;13.052;2022-07-03T12:17:23;101433.00;;;34.70
23208;BMP180;11773;52.570;13.052;2022-07-03T12:19:57;101440.00;;;34.80
23208;BMP180;11773;52.570;13.052;2022-07-03T12:22:35;101444.00;;;34.90
23208;BMP180;11773;52.570;13.052;2022-07-03T12:25:12;101433.00;;;34.90
23208;BMP180;11773;52.570;13.052;2022-07-03T12:27:45;101432.00;;;34.90
23208;BMP180;11773;52.570;13.052;2022-07-03T12:30:23;101433.00;;;34.90
23208;BMP180;11773;52.570;13.052;2022-07-03T12:32:56;101431.00;;;35.00
23208;BMP180;11773;52.570;13.052;2022-07-03T12:35:27;101428.00;;;35.00
23208;BMP180;11773;52.570;13.052;2022-07-03T12:37:57;101428.00;;;35.00
23208;BMP180;11773;52.570;13.052;2022-07-03T12:40:27;101435.00;;;35.10
23208;BMP180;11773;52.570;13.052;2022-07-03T12:42:57;101428.00;;;35.10
23208;BMP180;11773;52.570;13.052;2022-07-03T12:45:28;101417.00;;;35.10
23208;BMP180;11773;52.570;13.052;2022-07-03T12:48:06;101409.00;;;35.20
23208;BMP180;11773;52.570;13.052;2022-07-03T12:50:51;101421.00;;;35.20
23208;BMP180;11773;52.570;13.052;2022-07-03T12:53:32;101414.00;;;35.20
23208;BMP180;11773;52.570;13.052;2022-07-03T12:56:03;101413.00;;;35.20
23208;BMP180;11773;52.570;13.052;2022-07-03T12:58:40;101416.00;;;35.30
23208;BMP180;11773;52.570;13.052;2022-07-03T13:01:33;101413.00;;;35.30
23208;BMP180;11773;52.570;13.052;2022-07-03T13:04:06;101401.00;;;35.30
23208;BMP180;11773;52.570;13.052;2022-07-03T13:06:37;101397.00;;;35.40
23208;BMP180;11773;52.570;13.052;2022-07-03T13:09:07;101402.00;;;35.40
23208;BMP180;11773;52.570;13.052;2022-07-03T13:11:41;101398.00;;;35.50
23208;BMP180;11773;52.570;13.052;2022-07-03T13:14:16;101408.00;;;35.50
23208;BMP180;11773;52.570;13.052;2022-07-03T13:16:52;101407.00;;;35.60
23208;BMP180;11773;52.570;13.052;2022-07-03T13:19:25;101397.00;;;35.70
23208;BMP180;11773;52.570;13.052;2022-07-03T13:21:56;101399.00;;;35.70
23208;BMP180;11773;52.570;13.052;2022-07-03T13:24:27;101395.00;;;35.80
23208;BMP180;11773;52.570;13.052;2022-07-03T13:26:56;101394.00;;;35.80
23208;BMP180;11773;52.570;13.052;2022-07-03T13:29:27;101391.00;;;35.90
23208;BMP180;11773;52.570;13.052;2022-07-03T13:31:57;101396.00;;;35.90
23208;BMP180;11773;52.570;13.052;2022-07-03T13:34:27;101377.00;;;36.00
23208;BMP180;11773;52.570;13.052;2022-07-03T13:36:56;101388.00;;;36.00
23208;BMP180;11773;52.570;13.052;2022-07-03T13:39:26;101387.00;;;36.10
23208;BMP180;11773;52.570;13.052;2022-07-03T13:41:55;101369.00;;;36.10
23208;BMP180;11773;52.570;13.052;2022-07-03T13:44:25;101357.00;;;36.10
23208;BMP180;11773;52.570;13.052;2022-07-03T13:46:55;101367.00;;;36.10
23208;BMP180;11773;52.570;13.052;2022-07-03T13:49:24;101374.00;;;36.20
23208;BMP180;11773;52.570;13.052;2022-07-03T13:51:54;101380.00;;;36.10
23208;BMP180;11773;52.570;13.052;2022-07-03T13:54:23;101369.00;;;36.10
23208;BMP180;11773;52.570;13.052;2022-07-03T13:56:53;101374.00;;;36.10
23208;BMP180;11773;52.570;13.052;2022-07-03T13:59:22;101374.00;;;36.10
23208;BMP180;11773;52.570;13.052;2022-07-03T14:01:52;101374.00;;;36.10
23208;BMP180;11773;52.570;13.052;2022-07-03T14:04:21;101369.00;;;36.10
23208;BMP180;11773;52.570;13.052;2022-07-03T14:06:51;101371.00;;;36.10
23208;BMP180;11773;52.570;13.052;2022-07-03T14:09:21;101361.00;;;36.10
23208;BMP180;11773;52.570;13.052;2022-07-03T14:11:50;101373.00;;;36.00
23208;BMP180;11773;52.570;13.052;2022-07-03T14:14:20;101365.00;;;36.00
23208;BMP180;11773;52.570;13.052;2022-07-03T14:16:49;101363.00;;;36.00
23208;BMP180;11773;52.570;13.052;2022-07-03T14:19:20;101351.00;;;36.00
23208;BMP180;11773;52.570;13.052;2022-07-03T14:21:49;101350.00;;;36.00
23208;BMP180;11773;52.570;13.052;2022-07-03T14:24:19;101337.00;;;36.00
23208;BMP180;11773;52.570;13.052;2022-07-03T14:26:48;101349.00;;;36.00
23208;BMP180;11773;52.570;13.052;2022-07-03T14:29:36;101340.00;;;36.00
23208;BMP180;11773;52.570;13.052;2022-07-03T14:32:23;101350.00;;;35.90
23208;BMP180;11773;52.570;13.052;2022-07-03T14:35:03;101346.00;;;35.90
23208;BMP180;11773;52.570;13.052;2022-07-03T14:37:33;101345.00;;;35.90
23208;BMP180;11773;52.570;13.052;2022-07-03T14:40:04;101342.00;;;35.90
23208;BMP180;11773;52.570;13.052;2022-07-03T14:42:33;101337.00;;;35.90
23208;BMP180;11773;52.570;13.052;2022-07-03T14:45:03;101328.00;;;35.90
23208;BMP180;11773;52.570;13.052;2022-07-03T14:47:33;101337.00;;;35.80